createdAt,value
2023-10-20T00:00:16.756Z,31.52
2023-10-20T00:02:44.451Z,31.67
2023-10-20T00:05:11.561Z,31.70
2023-10-20T00:07:38.553Z,31.85
2023-10-20T00:10:06.949Z,31.15
2023-10-20T00:12:33.794Z,30.38
2023-10-20T00:15:01.293Z,31.67
2023-10-20T00:17:31.471Z,31.17
2023-10-20T00:19:58.884Z,30.25
2023-10-20T00:22:25.663Z,30.08
2023-10-20T00:24:52.522Z,32.10
2023-10-20T00:27:19.611Z,31.77
2023-10-20T00:29:46.688Z,31.25
2023-10-20T00:32:13.816Z,29.20
2023-10-20T00:34:40.722Z,31.42
2023-10-20T00:37:08.290Z,31.73
2023-10-20T00:39:36.715Z,31.17
2023-10-20T00:42:04.113Z,32.55
2023-10-20T00:44:31.477Z,30.83
2023-10-20T00:46:59.144Z,32.20
2023-10-20T00:49:26.008Z,31.17
2023-10-20T00:51:54.456Z,32.10
2023-10-20T00:54:22.326Z,32.10
2023-10-20T00:56:49.573Z,30.17
2023-10-20T00:59:16.965Z,30.58
2023-10-20T01:01:44.722Z,30.77
2023-10-20T01:04:11.894Z,29.13
2023-10-20T01:06:38.876Z,29.83
2023-10-20T01:09:05.851Z,29.85
2023-10-20T01:11:32.883Z,27.95
2023-10-20T01:13:59.943Z,28.33
2023-10-20T01:16:27.104Z,30.42
2023-10-20T01:18:54.063Z,30.70
2023-10-20T01:21:20.957Z,28.48
2023-10-20T01:23:47.753Z,29.42
2023-10-20T01:26:14.596Z,29.27
2023-10-20T01:28:41.405Z,29.13
2023-10-20T01:31:08.245Z,28.75
2023-10-20T01:33:36.210Z,28.02
2023-10-20T01:36:03.249Z,28.80
2023-10-20T01:38:32.784Z,29.83
2023-10-20T01:40:59.646Z,29.17
2023-10-20T01:43:26.566Z,29.58
2023-10-20T01:45:56.087Z,28.55
2023-10-20T01:48:26.390Z,30.45
2023-10-20T01:50:53.251Z,29.27
2023-10-20T01:53:20.093Z,29.65
2023-10-20T01:55:53.603Z,30.02
2023-10-20T01:58:24.895Z,30.40
2023-10-20T02:00:52.183Z,29.65
2023-10-20T02:03:21.979Z,29.42
2023-10-20T02:05:48.947Z,29.25
2023-10-20T02:08:17.087Z,31.52
2023-10-20T02:10:49.039Z,30.25
2023-10-20T02:13:16.578Z,31.05
2023-10-20T02:15:51.705Z,30.52
2023-10-20T02:18:18.900Z,30.52
2023-10-20T02:20:45.965Z,30.85
2023-10-20T02:23:13.024Z,30.30
2023-10-20T02:25:39.973Z,31.58
2023-10-20T02:28:10.117Z,30.10
2023-10-20T02:30:36.937Z,31.75
2023-10-20T02:33:05.017Z,32.70
2023-10-20T02:35:31.992Z,31.77
2023-10-20T02:37:58.874Z,31.77
2023-10-20T02:40:25.762Z,31.85
2023-10-20T02:42:52.702Z,33.85
2023-10-20T02:45:19.554Z,34.42
2023-10-20T02:47:46.498Z,34.67
2023-10-20T02:50:13.573Z,32.72
2023-10-20T02:52:41.169Z,32.38
2023-10-20T02:55:11.005Z,35.15
2023-10-20T02:57:38.213Z,34.15
2023-10-20T03:00:05.839Z,34.88
2023-10-20T03:02:32.983Z,35.67
2023-10-20T03:05:00.288Z,36.53
2023-10-20T03:07:28.859Z,36.28
2023-10-20T03:09:56.673Z,36.58
2023-10-20T03:12:23.482Z,37.22
2023-10-20T03:14:50.454Z,36.83
2023-10-20T03:17:17.720Z,34.90
2023-10-20T03:19:46.276Z,36.38
2023-10-20T03:22:17.228Z,34.45
2023-10-20T03:24:44.332Z,36.63
2023-10-20T03:27:11.312Z,36.75
2023-10-20T03:29:38.616Z,36.35
2023-10-20T03:32:06.007Z,36.28
2023-10-20T03:34:33.877Z,37.53
2023-10-20T03:37:02.300Z,36.28
2023-10-20T03:39:29.242Z,35.53
2023-10-20T03:41:56.083Z,35.17
2023-10-20T03:44:23.879Z,35.83
2023-10-20T03:46:51.384Z,36.72
2023-10-20T03:49:18.257Z,34.45
2023-10-20T03:51:51.055Z,36.58
2023-10-20T03:54:18.968Z,35.22
2023-10-20T03:56:46.663Z,33.25
2023-10-20T03:59:15.219Z,34.33
2023-10-20T04:01:42.167Z,35.35
2023-10-20T04:04:11.254Z,35.45
2023-10-20T04:06:38.303Z,35.50
2023-10-20T04:09:12.200Z,35.08
2023-10-20T04:11:40.107Z,34.92
2023-10-20T04:14:08.119Z,36.65
2023-10-20T04:16:42.979Z,36.90
2023-10-20T04:19:11.355Z,35.22
2023-10-20T04:21:40.492Z,34.63
2023-10-20T04:24:09.016Z,35.47
2023-10-20T04:26:36.985Z,34.38
2023-10-20T04:29:15.033Z,33.75
2023-10-20T04:32:00.799Z,34.03
2023-10-20T04:34:46.816Z,35.95
2023-10-20T04:37:32.478Z,36.85
2023-10-20T04:40:17.888Z,36.22
2023-10-20T04:42:54.155Z,37.40
2023-10-20T04:45:24.223Z,35.33
2023-10-20T04:48:00.699Z,35.83
2023-10-20T04:50:46.402Z,34.83
2023-10-20T04:53:33.570Z,34.17
2023-10-20T04:56:30.252Z,34.42
2023-10-20T04:59:01.044Z,32.63
2023-10-20T05:01:46.918Z,30.52
2023-10-20T05:04:30.495Z,32.08
2023-10-20T05:07:06.841Z,31.15
2023-10-20T05:09:37.103Z,32.05
2023-10-20T05:12:03.970Z,30.55
2023-10-20T05:14:31.176Z,29.77
2023-10-20T05:16:59.023Z,30.20
2023-10-20T05:19:27.099Z,29.80
2023-10-20T05:21:54.721Z,27.42
2023-10-20T05:24:21.640Z,28.10
2023-10-20T05:26:48.512Z,29.55
2023-10-20T05:29:15.912Z,28.13
2023-10-20T05:31:42.977Z,28.17
2023-10-20T05:34:10.617Z,27.17
2023-10-20T05:36:37.409Z,28.25
2023-10-20T05:39:04.572Z,26.85
2023-10-20T05:41:31.785Z,29.00
2023-10-20T05:43:58.770Z,26.48
2023-10-20T05:46:25.978Z,26.85
2023-10-20T05:48:53.004Z,27.38
2023-10-20T05:51:20.010Z,26.08
2023-10-20T05:53:46.964Z,27.08
2023-10-20T05:56:13.873Z,26.45
2023-10-20T05:58:41.635Z,27.70
2023-10-20T06:01:13.037Z,26.20
2023-10-20T06:03:41.117Z,26.40
2023-10-20T06:06:08.227Z,27.60
2023-10-20T06:08:35.387Z,28.77
2023-10-20T06:11:07.063Z,26.88
2023-10-20T06:13:37.131Z,28.73
2023-10-20T06:16:12.324Z,28.92
2023-10-20T06:18:41.113Z,28.27
2023-10-20T06:21:13.687Z,29.17
2023-10-20T06:23:42.176Z,28.48
2023-10-20T06:26:09.452Z,28.25
2023-10-20T06:28:36.488Z,28.27
2023-10-20T06:31:23.946Z,28.35
2023-10-20T06:33:58.859Z,27.63
2023-10-20T06:36:27.748Z,28.52
2023-10-20T06:38:54.933Z,29.23
2023-10-20T06:41:21.860Z,29.45
2023-10-20T06:43:52.516Z,29.73
2023-10-20T06:46:20.648Z,28.55
2023-10-20T06:48:49.244Z,29.88
2023-10-20T06:51:16.114Z,28.30
2023-10-20T06:53:43.070Z,29.17
2023-10-20T06:56:15.858Z,29.25
2023-10-20T06:58:43.630Z,29.35
2023-10-20T07:01:10.454Z,30.02
2023-10-20T07:03:37.476Z,28.27
2023-10-20T07:06:14.349Z,28.58
2023-10-20T07:08:41.600Z,29.00
2023-10-20T07:11:08.455Z,29.60
2023-10-20T07:13:35.466Z,30.20
2023-10-20T07:16:02.623Z,30.08
2023-10-20T07:18:29.566Z,29.90
2023-10-20T07:20:58.816Z,28.80
2023-10-20T07:23:44.372Z,27.88
2023-10-20T07:26:12.317Z,29.70
2023-10-20T07:28:39.383Z,28.45
2023-10-20T07:31:16.917Z,27.70
2023-10-20T07:33:43.826Z,27.98
2023-10-20T07:36:11.904Z,26.70
2023-10-20T07:38:40.538Z,25.92
2023-10-20T07:41:08.772Z,27.67
2023-10-20T07:43:35.709Z,25.38
2023-10-20T07:46:04.133Z,26.98
2023-10-20T07:48:35.951Z,25.60
2023-10-20T07:51:03.849Z,26.60
2023-10-20T07:53:30.967Z,26.30
2023-10-20T07:55:57.967Z,26.98
2023-10-20T07:58:24.830Z,26.80
2023-10-20T08:00:52.484Z,24.15
2023-10-20T08:03:19.637Z,23.85
2023-10-20T08:05:47.348Z,22.50
2023-10-20T08:08:14.497Z,24.63
2023-10-20T08:10:41.457Z,22.13
2023-10-20T08:13:08.356Z,22.10
2023-10-20T08:15:40.067Z,22.70
2023-10-20T08:18:11.178Z,22.90
2023-10-20T08:20:39.241Z,23.50
2023-10-20T08:23:06.665Z,22.35
2023-10-20T08:25:38.487Z,21.98
2023-10-20T08:28:06.441Z,22.15
2023-10-20T08:30:33.318Z,21.73
2023-10-20T08:33:00.902Z,21.02
2023-10-20T08:35:27.998Z,21.52
2023-10-20T08:37:54.807Z,21.15
2023-10-20T08:40:21.873Z,19.90
2023-10-20T08:42:50.082Z,21.08
2023-10-20T08:45:17.324Z,20.38
2023-10-20T08:47:44.966Z,20.95
2023-10-20T08:50:17.452Z,20.10
2023-10-20T08:52:46.322Z,19.45
2023-10-20T08:55:14.821Z,19.67
2023-10-20T08:57:41.962Z,19.85
2023-10-20T09:00:09.745Z,20.15
2023-10-20T09:02:38.814Z,19.52
2023-10-20T09:05:06.705Z,18.20
2023-10-20T09:07:33.632Z,18.10
2023-10-20T09:10:00.474Z,19.13
2023-10-20T09:12:30.463Z,18.90
2023-10-20T09:14:58.550Z,17.88
2023-10-20T09:17:26.064Z,17.63
2023-10-20T09:19:52.916Z,18.30
2023-10-20T09:22:30.464Z,18.02
2023-10-20T09:25:03.482Z,17.65
2023-10-20T09:27:32.154Z,18.27
2023-10-20T09:30:01.147Z,17.77
2023-10-20T09:32:29.070Z,18.15
2023-10-20T09:34:58.958Z,19.05
2023-10-20T09:37:29.967Z,17.63
2023-10-20T09:40:09.549Z,17.35
2023-10-20T09:42:42.415Z,18.30
2023-10-20T09:45:15.632Z,17.33
2023-10-20T09:47:47.901Z,19.40
2023-10-20T09:50:16.098Z,17.38
2023-10-20T09:52:43.941Z,17.98
2023-10-20T09:55:12.680Z,17.92
2023-10-20T09:57:40.284Z,17.58
2023-10-20T10:00:10.669Z,18.13
2023-10-20T10:02:37.758Z,17.17
2023-10-20T10:05:11.774Z,17.25
2023-10-20T10:07:38.710Z,18.98
2023-10-20T10:10:09.068Z,17.77
2023-10-20T10:12:36.171Z,18.30
2023-10-20T10:15:15.607Z,17.88
2023-10-20T10:17:50.523Z,16.88
2023-10-20T10:20:50.238Z,18.70
2023-10-20T10:23:17.459Z,17.25
2023-10-20T10:25:47.609Z,18.13
2023-10-20T10:28:18.508Z,18.02
2023-10-20T10:30:49.514Z,17.20
2023-10-20T10:33:22.748Z,16.20
2023-10-20T10:35:50.614Z,17.27
2023-10-20T10:38:25.056Z,16.35
2023-10-20T10:40:53.236Z,17.10
2023-10-20T10:43:22.738Z,16.80
2023-10-20T10:45:56.284Z,16.13
2023-10-20T10:48:30.963Z,15.82
2023-10-20T10:50:57.894Z,15.68
2023-10-20T10:53:27.824Z,16.25
2023-10-20T10:55:55.956Z,15.40
2023-10-20T10:58:24.812Z,15.30
2023-10-20T11:00:52.475Z,15.13
2023-10-20T11:03:22.472Z,15.15
2023-10-20T11:05:52.049Z,14.30
2023-10-20T11:08:20.713Z,15.30
2023-10-20T11:10:48.086Z,14.68
2023-10-20T11:13:21.408Z,14.00
2023-10-20T11:15:49.232Z,13.60
2023-10-20T11:18:18.307Z,13.60
2023-10-20T11:20:49.197Z,14.95
2023-10-20T11:23:21.013Z,13.88
2023-10-20T11:25:50.396Z,14.60
2023-10-20T11:28:17.798Z,14.00
2023-10-20T11:30:47.267Z,13.13
2023-10-20T11:33:16.569Z,13.18
2023-10-20T11:35:47.492Z,13.15
2023-10-20T11:38:18.387Z,13.35
2023-10-20T11:40:55.374Z,12.00
2023-10-20T11:43:22.291Z,12.25
2023-10-20T11:45:49.715Z,11.63
2023-10-20T11:48:16.717Z,12.75
2023-10-20T11:50:43.821Z,12.77
2023-10-20T11:53:10.876Z,12.48
2023-10-20T11:55:37.862Z,12.73
2023-10-20T11:58:05.493Z,12.60
2023-10-20T12:00:32.651Z,12.77
2023-10-20T12:02:59.878Z,12.52
2023-10-20T12:05:27.291Z,13.95
2023-10-20T12:07:54.147Z,14.18
2023-10-20T12:10:25.185Z,12.77
2023-10-20T12:12:56.109Z,13.32
2023-10-20T12:15:23.250Z,13.02
2023-10-20T12:17:50.180Z,13.73
2023-10-20T12:20:17.779Z,13.50
2023-10-20T12:22:44.642Z,14.50
2023-10-20T12:25:11.625Z,13.45
2023-10-20T12:27:39.264Z,13.77
2023-10-20T12:30:07.050Z,13.70
2023-10-20T12:32:34.327Z,13.73
2023-10-20T12:35:01.440Z,14.20
2023-10-20T12:37:28.240Z,13.73
2023-10-20T12:39:55.029Z,14.68
2023-10-20T12:42:22.024Z,15.07
2023-10-20T12:44:48.963Z,14.52
2023-10-20T12:47:16.627Z,13.45
2023-10-20T12:49:43.951Z,13.73
2023-10-20T12:52:10.834Z,14.15
2023-10-20T12:54:38.096Z,12.85
2023-10-20T12:57:05.304Z,12.38
2023-10-20T12:59:32.555Z,13.77
2023-10-20T13:01:59.487Z,14.50
2023-10-20T13:04:26.574Z,12.88
2023-10-20T13:07:00.583Z,14.02
2023-10-20T13:09:28.750Z,14.75
2023-10-20T13:11:58.945Z,13.13
2023-10-20T13:14:27.258Z,13.68
2023-10-20T13:16:54.253Z,12.82
2023-10-20T13:19:21.139Z,12.50
2023-10-20T13:21:48.568Z,11.80
2023-10-20T13:24:15.513Z,11.52
2023-10-20T13:26:42.477Z,11.63
2023-10-20T13:29:09.300Z,11.35
2023-10-20T13:31:36.627Z,10.40
2023-10-20T13:34:04.195Z,11.02
2023-10-20T13:36:31.075Z,10.93
2023-10-20T13:38:58.175Z,11.07
2023-10-20T13:41:25.524Z,11.15
2023-10-20T13:43:53.395Z,9.82
2023-10-20T13:46:23.686Z,10.18
2023-10-20T13:48:50.701Z,8.65
2023-10-20T13:51:17.874Z,8.02
2023-10-20T13:53:44.735Z,8.48
2023-10-20T13:56:11.541Z,7.18
2023-10-20T13:58:38.392Z,6.60
2023-10-20T14:01:05.319Z,6.03
2023-10-20T14:03:35.473Z,5.13
2023-10-20T14:06:03.884Z,5.60
2023-10-20T14:08:30.778Z,4.60
2023-10-20T14:11:01.502Z,4.25
2023-10-20T14:13:28.415Z,4.13
2023-10-20T14:15:55.461Z,3.50
2023-10-20T14:18:23.225Z,3.75
2023-10-20T14:20:50.269Z,3.13
2023-10-20T14:23:20.903Z,3.40
2023-10-20T14:25:47.744Z,3.35
2023-10-20T14:28:14.545Z,3.60
2023-10-20T14:30:41.433Z,3.55
2023-10-20T14:33:08.465Z,3.28
2023-10-20T14:35:37.492Z,3.22
2023-10-20T14:38:04.564Z,3.17
2023-10-20T14:40:31.476Z,3.22
2023-10-20T14:42:58.371Z,3.63
2023-10-20T14:45:25.230Z,3.28
2023-10-20T14:47:52.088Z,2.70
2023-10-20T14:50:18.922Z,2.83
2023-10-20T14:52:45.980Z,2.45
2023-10-20T14:55:13.198Z,2.65
2023-10-20T14:57:40.327Z,2.67
2023-10-20T15:00:11.398Z,2.85
2023-10-20T15:02:43.005Z,2.40
2023-10-20T15:05:10.476Z,2.33
2023-10-20T15:07:38.059Z,2.63
2023-10-20T15:10:05.565Z,2.55
2023-10-20T15:12:32.952Z,2.40
2023-10-20T15:15:01.090Z,2.53
2023-10-20T15:17:28.179Z,2.40
2023-10-20T15:20:01.201Z,2.60
2023-10-20T15:22:28.033Z,2.40
2023-10-20T15:24:55.524Z,2.75
2023-10-20T15:27:22.332Z,2.63
2023-10-20T15:29:49.462Z,2.60
2023-10-20T15:32:18.761Z,2.30
2023-10-20T15:34:45.574Z,2.80
2023-10-20T15:37:12.420Z,3.00
2023-10-20T15:39:51.063Z,2.80
2023-10-20T15:42:27.346Z,2.70
2023-10-20T15:44:57.494Z,2.78
2023-10-20T15:47:24.656Z,2.97
2023-10-20T15:49:53.017Z,3.45
2023-10-20T15:52:20.100Z,3.13
2023-10-20T15:54:47.248Z,3.33
2023-10-20T15:57:15.216Z,3.22
2023-10-20T15:59:43.969Z,4.07
2023-10-20T16:02:10.949Z,4.20
2023-10-20T16:04:38.140Z,3.63
2023-10-20T16:07:05.311Z,3.20
2023-10-20T16:09:32.238Z,3.20
2023-10-20T16:11:59.191Z,3.25
2023-10-20T16:14:26.000Z,10.10
2023-10-20T16:16:55.951Z,5.55
2023-10-20T16:19:22.799Z,1.90
2023-10-20T16:21:49.963Z,1.90
2023-10-20T16:24:17.612Z,1.90
2023-10-20T16:26:46.235Z,2.22
2023-10-20T16:29:13.105Z,2.03
2023-10-20T16:31:39.954Z,1.38
2023-10-20T16:34:07.478Z,1.40
2023-10-20T16:36:35.528Z,1.67
2023-10-20T16:39:05.540Z,1.40
2023-10-20T16:41:32.543Z,1.45
2023-10-20T16:43:59.364Z,1.15
2023-10-20T16:46:26.539Z,1.48
2023-10-20T16:48:55.577Z,1.30
2023-10-20T16:51:22.415Z,1.80
2023-10-20T16:53:49.367Z,1.27
2023-10-20T16:56:16.417Z,1.98
2023-10-20T16:58:43.210Z,1.30
2023-10-20T17:01:10.085Z,1.48
2023-10-20T17:03:37.459Z,1.40
2023-10-20T17:06:06.121Z,2.60
2023-10-20T17:08:33.428Z,1.65
2023-10-20T17:11:11.521Z,1.40
2023-10-20T17:13:38.508Z,1.50
2023-10-20T17:16:06.620Z,1.63
2023-10-20T17:18:33.762Z,1.55
2023-10-20T17:21:05.714Z,1.63
2023-10-20T17:23:33.934Z,1.25
2023-10-20T17:26:01.310Z,1.50
2023-10-20T17:28:28.839Z,2.38
2023-10-20T17:31:01.081Z,2.80
2023-10-20T17:33:28.123Z,2.80
2023-10-20T17:36:02.029Z,2.40
2023-10-20T17:38:29.158Z,1.83
2023-10-20T17:41:06.853Z,2.10
2023-10-20T17:43:33.805Z,1.38
2023-10-20T17:46:14.236Z,2.00
2023-10-20T17:48:41.652Z,2.28
2023-10-20T17:51:08.656Z,1.73
2023-10-20T17:53:35.678Z,2.40
2023-10-20T17:56:06.380Z,2.30
2023-10-20T17:58:33.815Z,2.08
2023-10-20T18:01:13.190Z,1.40
2023-10-20T18:03:42.532Z,1.67
2023-10-20T18:06:14.605Z,1.65
2023-10-20T18:08:44.533Z,1.95
2023-10-20T18:11:13.047Z,1.40
2023-10-20T18:13:41.601Z,1.90
2023-10-20T18:16:12.816Z,1.60
2023-10-20T18:18:41.100Z,2.30
2023-10-20T18:21:08.220Z,2.00
2023-10-20T18:23:35.791Z,2.22
2023-10-20T18:26:04.733Z,1.95
2023-10-20T18:28:32.198Z,1.67
2023-10-20T18:30:59.627Z,2.38
2023-10-20T18:33:29.793Z,2.50
2023-10-20T18:35:57.614Z,2.45
2023-10-20T18:38:24.799Z,2.13
2023-10-20T18:40:51.609Z,2.55
2023-10-20T18:43:20.301Z,2.88
2023-10-20T18:45:54.611Z,3.15
2023-10-20T18:48:21.597Z,2.92
2023-10-20T18:50:48.492Z,3.70
2023-10-20T18:53:15.354Z,4.38
2023-10-20T18:55:42.412Z,4.20
2023-10-20T18:58:09.314Z,3.53
2023-10-20T19:00:36.118Z,3.20
2023-10-20T19:03:06.294Z,3.22
2023-10-20T19:05:33.655Z,3.75
2023-10-20T19:08:01.214Z,4.00
2023-10-20T19:10:27.988Z,4.07
2023-10-20T19:12:54.829Z,3.60
2023-10-20T19:15:21.784Z,2.95
2023-10-20T19:17:48.711Z,2.85
2023-10-20T19:20:15.541Z,2.70
2023-10-20T19:22:42.872Z,2.00
2023-10-20T19:25:10.036Z,2.17
2023-10-20T19:27:37.081Z,2.35
2023-10-20T19:30:07.928Z,1.90
2023-10-20T19:32:35.634Z,1.75
2023-10-20T19:35:02.697Z,1.88
2023-10-20T19:37:30.502Z,2.30
2023-10-20T19:39:58.130Z,1.80
2023-10-20T19:42:26.077Z,1.70
2023-10-20T19:44:52.916Z,1.98
2023-10-20T19:47:19.804Z,2.10
2023-10-20T19:49:46.647Z,2.30
2023-10-20T19:52:13.474Z,1.98
2023-10-20T19:54:40.320Z,1.75
2023-10-20T19:57:07.242Z,1.77
2023-10-20T19:59:34.414Z,1.90
2023-10-20T20:02:01.578Z,1.73
2023-10-20T20:04:28.548Z,1.70
2023-10-20T20:06:55.639Z,1.80
2023-10-20T20:09:24.407Z,2.05
2023-10-20T20:11:51.416Z,2.25
2023-10-20T20:14:18.234Z,1.67
2023-10-20T20:16:49.912Z,1.63
2023-10-20T20:19:17.174Z,1.60
2023-10-20T20:21:44.139Z,1.55
2023-10-20T20:24:11.980Z,1.95
2023-10-20T20:26:38.823Z,1.20
2023-10-20T20:29:06.078Z,2.20
2023-10-20T20:31:32.992Z,1.92
2023-10-20T20:34:02.858Z,1.90
2023-10-20T20:36:30.193Z,1.92
2023-10-20T20:38:57.061Z,1.50
2023-10-20T20:41:23.932Z,1.88
2023-10-20T20:43:53.641Z,2.05
2023-10-20T20:46:20.847Z,1.50
2023-10-20T20:48:48.897Z,1.55
2023-10-20T20:51:16.196Z,1.80
2023-10-20T20:53:43.058Z,1.50
2023-10-20T20:56:13.221Z,1.80
2023-10-20T20:58:41.361Z,1.60
2023-10-20T21:01:10.270Z,1.60
2023-10-20T21:03:42.382Z,2.10
2023-10-20T21:06:10.960Z,1.77
2023-10-20T21:08:37.948Z,1.60
2023-10-20T21:11:12.640Z,1.80
2023-10-20T21:13:41.600Z,2.30
2023-10-20T21:16:10.486Z,2.13
2023-10-20T21:18:39.426Z,1.50
2023-10-20T21:21:11.901Z,1.90
2023-10-20T21:23:38.863Z,1.90
2023-10-20T21:26:05.643Z,1.75
2023-10-20T21:28:33.145Z,1.73
2023-10-20T21:31:05.956Z,1.77
2023-10-20T21:33:34.267Z,1.92
2023-10-20T21:36:02.048Z,1.60
2023-10-20T21:38:28.907Z,2.00
2023-10-20T21:40:58.933Z,2.30
2023-10-20T21:43:28.976Z,2.05
2023-10-20T21:45:57.900Z,2.03
2023-10-20T21:48:26.062Z,1.75
2023-10-20T21:51:00.488Z,2.80
2023-10-20T21:53:27.975Z,2.00
2023-10-20T21:56:03.229Z,1.90
2023-10-20T21:58:30.387Z,2.20
2023-10-20T22:00:57.301Z,2.03
2023-10-20T22:03:24.925Z,2.50
2023-10-20T22:05:53.530Z,2.17
2023-10-20T22:08:20.880Z,2.00
2023-10-20T22:10:47.997Z,2.28
2023-10-20T22:13:14.877Z,2.15
2023-10-20T22:15:42.036Z,2.10
2023-10-20T22:18:12.560Z,1.90
2023-10-20T22:20:39.831Z,2.00
2023-10-20T22:23:07.167Z,2.08
2023-10-20T22:25:34.938Z,2.15
2023-10-20T22:28:02.388Z,2.20
2023-10-20T22:30:29.312Z,1.92
2023-10-20T22:32:56.607Z,2.20
2023-10-20T22:35:24.735Z,2.22
2023-10-20T22:37:52.408Z,2.17
2023-10-20T22:40:21.549Z,2.53
2023-10-20T22:42:48.924Z,2.60
2023-10-20T22:45:16.198Z,2.33
2023-10-20T22:47:43.157Z,2.53
2023-10-20T22:50:10.538Z,2.45
2023-10-20T22:52:37.589Z,2.53
2023-10-20T22:55:06.175Z,2.35
2023-10-20T22:57:33.249Z,3.13
2023-10-20T23:00:00.530Z,3.00
2023-10-20T23:02:27.707Z,2.55
2023-10-20T23:04:57.550Z,2.65
2023-10-20T23:07:24.362Z,2.83
2023-10-20T23:09:51.192Z,3.13
2023-10-20T23:12:18.250Z,2.92
2023-10-20T23:14:45.130Z,3.50
2023-10-20T23:17:12.096Z,3.40
2023-10-20T23:19:38.866Z,3.63
2023-10-20T23:22:05.856Z,3.25
2023-10-20T23:24:33.223Z,3.17
2023-10-20T23:27:01.810Z,3.55
2023-10-20T23:29:28.947Z,3.30
2023-10-20T23:31:55.744Z,3.00
2023-10-20T23:34:23.750Z,3.20
2023-10-20T23:36:50.594Z,3.47
2023-10-20T23:39:17.671Z,3.13
2023-10-20T23:41:44.472Z,2.83
2023-10-20T23:44:11.313Z,3.03
2023-10-20T23:46:38.106Z,3.88
2023-10-20T23:49:04.939Z,3.22
2023-10-20T23:51:31.819Z,3.67
2023-10-20T23:53:58.643Z,3.58
2023-10-20T23:56:26.407Z,3.22
2023-10-20T23:58:53.265Z,3.53
